Terminal Aerodrome Forecast
Issued by NWS

Home | Current Version | Previous Version | Graphics & Text | Print | Product List | Glossary On
Versions: 1 2 3 4 5 6 7 8 9 10 11 12 13 14 15 16 17 18
419
FTUS43 KGRB 241720
TAFMTW
TAF
KMTW 241720Z 2418/2518 13010KT P6SM FEW050
     FM250000 16008KT P6SM SKC
     FM250500 19004KT P6SM SKC
      TEMPO 2505/2509 4SM BR
     FM250900 19004KT 5SM BR SKC
      TEMPO 2509/2513 1SM BR
     FM251400 18007KT P6SM SCT250
     FM251700 16009KT P6SM FEW050 SCT250=

USA.gov is the U.S. government's official web portal to all federal, state and local government web resources and services.